Time;durP1;ratioP1;P1;durP2;ratioP2;P2;SDS_P1;SDS_P2;PMS_P1;PMS_P2;Temp;Humidity;BMP_temperature;BMP_pressure;BME280_temperature;BME280_humidity;BME280_pressure;Samples;Min_cycle;Max_cycle;Signal;HPM_P1;HPM_P2
2023/12/12 00:01:36;;;;;;;59.05;21.85;;;;;;;5.28;100.00;100047.22;4982692;28;20042;-80
2023/12/12 00:04:01;;;;;;;47.53;19.30;;;;;;;5.25;100.00;100047.53;4968680;28;20047;-81
2023/12/12 00:06:29;;;;;;;62.75;19.75;;;;;;;5.13;100.00;100032.81;4968025;28;20113;-81
2023/12/12 00:08:55;;;;;;;47.63;17.85;;;;;;;5.03;100.00;100046.06;4952198;28;20064;-77
2023/12/12 00:11:20;;;;;;;;;;;;;;;5.13;100.00;100061.06;4967207;28;20038;-82
2023/12/12 00:13:46;;;;;;;52.50;19.35;;;;;;;5.23;100.00;100059.22;4976430;28;20011;-82
2023/12/12 00:16:12;;;;;;;;;;;;;;;5.27;100.00;100063.25;4957055;28;20068;-81
2023/12/12 00:18:37;;;;;;;73.30;20.60;;;;;;;5.20;100.00;100063.00;4973642;28;19949;-80
2023/12/12 00:21:03;;;;;;;67.77;21.13;;;;;;;5.15;100.00;100057.31;4958615;28;20124;-81
2023/12/12 00:23:28;;;;;;;85.05;22.75;;;;;;;5.22;100.00;100058.41;4970408;28;20313;-81
2023/12/12 00:25:54;;;;;;;73.18;24.05;;;;;;;5.25;100.00;100057.28;4969342;28;20057;-81
2023/12/12 00:28:19;;;;;;;57.28;21.90;;;;;;;5.21;100.00;100055.91;4972652;28;20089;-81
2023/12/12 00:30:45;;;;;;;62.40;20.93;;;;;;;5.19;100.00;100060.50;4968752;28;20038;-81
2023/12/12 00:33:10;;;;;;;61.73;22.33;;;;;;;5.13;100.00;100058.41;4957753;28;21073;-82
2023/12/12 00:35:35;;;;;;;67.07;21.63;;;;;;;5.23;100.00;100067.16;4971444;28;20038;-82
2023/12/12 00:38:01;;;;;;;52.90;20.07;;;;;;;5.21;100.00;100058.53;4972202;28;20045;-81
2023/12/12 00:40:26;;;;;;;55.40;22.63;;;;;;;5.19;100.00;100057.84;4960654;28;20394;-79
2023/12/12 00:42:52;;;;;;;69.43;21.60;;;;;;;5.22;100.00;100061.06;4970649;28;20038;-82
2023/12/12 00:45:17;;;;;;;66.07;21.02;;;;;;;5.16;100.00;100060.78;4957089;28;20050;-81
2023/12/12 00:47:44;;;;;;;68.27;20.40;;;;;;;5.15;100.00;100064.41;4970996;28;20035;-82
2023/12/12 00:50:09;;;;;;;64.15;20.73;;;;;;;5.19;100.00;100063.13;4953134;28;20353;-82
2023/12/12 00:52:35;;;;;;;62.63;22.17;;;;;;;5.20;100.00;100065.66;4968827;28;20109;-81
2023/12/12 00:55:00;;;;;;;63.97;20.48;;;;;;;5.16;100.00;100071.38;4953336;28;20034;-82
2023/12/12 00:57:27;;;;;;;58.97;21.45;;;;;;;5.21;100.00;100082.34;4986020;28;20042;-81
2023/12/12 00:59:52;;;;;;;;;;;;;;;5.11;100.00;100082.38;4984885;28;20519;-82
2023/12/12 01:02:22;;;;;;;46.97;18.73;;;;;;;4.98;100.00;100082.69;4966829;28;20044;-81
2023/12/12 01:04:47;;;;;;;56.83;20.73;;;;;;;5.03;100.00;100079.59;4977266;28;20481;-82
2023/12/12 01:07:13;;;;;;;67.38;22.25;;;;;;;5.03;100.00;100080.47;4987317;28;20162;-82
2023/12/12 01:09:39;;;;;;;51.50;22.08;;;;;;;5.13;100.00;100085.72;4956462;28;20433;-82
2023/12/12 01:12:05;;;;;;;50.38;22.02;;;;;;;5.06;100.00;100092.56;4972312;28;20035;-82
2023/12/12 01:14:31;;;;;;;;;;;;;;;5.13;100.00;100098.09;4973391;28;20034;-82
2023/12/12 01:16:57;;;;;;;54.83;19.98;;;;;;;5.09;100.00;100100.22;4964195;28;19917;-79
2023/12/12 01:19:22;;;;;;;59.25;22.92;;;;;;;5.06;100.00;100106.63;4959533;28;20481;-81
2023/12/12 01:21:48;;;;;;;64.53;22.93;;;;;;;5.04;100.00;100100.66;4971181;28;20042;-81
2023/12/12 01:24:13;;;;;;;50.20;20.13;;;;;;;5.00;100.00;100098.44;4956836;28;20400;-81
2023/12/12 01:26:39;;;;;;;46.87;20.50;;;;;;;4.98;100.00;100101.19;4972265;28;20049;-83
2023/12/12 01:29:04;;;;;;;50.58;22.02;;;;;;;4.79;100.00;100080.09;4958015;28;20034;-81
2023/12/12 01:31:29;;;;;;;44.80;20.20;;;;;;;4.89;100.00;100091.47;4972945;28;20038;-82
2023/12/12 01:33:55;;;;;;;57.15;22.02;;;;;;;4.89;100.00;100091.47;4972353;28;20293;-82
2023/12/12 01:36:20;;;;;;;49.80;20.70;;;;;;;4.95;100.00;100100.66;4973206;28;20141;-82
2023/12/12 01:38:46;;;;;;;47.40;20.85;;;;;;;4.99;100.00;100105.53;4958246;28;20045;-81
2023/12/12 01:41:11;;;;;;;47.65;20.75;;;;;;;4.99;100.00;100107.34;4959787;28;20089;-80
2023/12/12 01:43:37;;;;;;;48.75;20.55;;;;;;;4.97;100.00;100102.19;4975304;28;20030;-79
2023/12/12 01:46:07;;;;;;;49.20;21.10;;;;;;;4.97;100.00;100102.19;4956957;28;20494;-79
2023/12/12 01:48:33;;;;;;;50.67;21.67;;;;;;;4.99;100.00;100108.19;4975284;28;20046;-80
2023/12/12 01:51:00;;;;;;;66.13;23.10;;;;;;;4.91;100.00;100100.09;4959199;28;20039;-77
2023/12/12 01:53:29;;;;;;;54.10;22.50;;;;;;;4.98;100.00;100103.84;4959065;28;20336;-78
2023/12/12 01:55:55;;;;;;;55.95;22.55;;;;;;;5.04;100.00;100103.28;4966440;28;20031;-78
2023/12/12 01:58:22;;;;;;;;;;;;;;;4.99;100.00;100105.53;4959214;28;20065;-79
2023/12/12 02:00:47;;;;;;;52.08;21.05;;;;;;;5.05;100.00;100101.47;4967949;28;19940;-80
2023/12/12 02:03:13;;;;;;;42.05;20.30;;;;;;;5.06;100.00;100103.16;4974810;28;20485;-78
2023/12/12 02:05:40;;;;;;;;;;;;;;;5.07;100.00;100100.34;4959746;28;20042;-79
2023/12/12 02:08:05;;;;;;;45.85;18.88;;;;;;;5.03;100.00;100100.78;4959188;28;19914;-80
2023/12/12 02:10:31;;;;;;;52.20;21.33;;;;;;;5.05;100.00;100099.66;4964213;28;20099;-77
2023/12/12 02:12:56;;;;;;;61.60;23.05;;;;;;;5.02;100.00;100097.31;4973963;28;20135;-77
2023/12/12 02:15:22;;;;;;;48.40;20.20;;;;;;;5.05;100.00;100097.00;4985088;28;20030;-79
2023/12/12 02:17:48;;;;;;;48.25;20.63;;;;;;;4.95;100.00;100098.03;4973979;28;20859;-80
2023/12/12 02:20:13;;;;;;;;;;;;;;;4.87;100.00;100096.09;4973566;28;20070;-80
2023/12/12 02:22:39;;;;;;;51.67;20.02;;;;;;;4.92;100.00;100115.00;4979133;28;19987;-77
2023/12/12 02:25:05;;;;;;;52.55;22.50;;;;;;;5.01;100.00;100102.72;4990766;28;20225;-79
2023/12/12 02:27:30;;;;;;;43.03;19.45;;;;;;;4.99;100.00;100105.53;4961867;28;20030;-79
2023/12/12 02:29:56;;;;;;;49.97;21.75;;;;;;;4.94;100.00;100106.91;4973824;28;20038;-79
2023/12/12 02:32:21;;;;;;;54.97;22.10;;;;;;;5.01;100.00;100114.16;4974144;28;20141;-78
2023/12/12 02:34:46;;;;;;;59.83;24.23;;;;;;;4.94;100.00;100106.91;4963440;28;20018;-77
2023/12/12 02:37:12;;;;;;;42.43;19.90;;;;;;;4.98;100.00;100109.13;4975313;28;20369;-80
2023/12/12 02:39:37;;;;;;;52.95;22.17;;;;;;;5.01;100.00;100108.88;4977777;28;20034;-79
2023/12/12 02:42:03;;;;;;;44.47;20.70;;;;;;;5.02;100.00;100104.41;4989821;28;20062;-80
2023/12/12 02:44:28;;;;;;;48.05;22.10;;;;;;;5.00;100.00;100106.38;4968868;28;20636;-79
2023/12/12 02:46:54;;;;;;;41.20;20.20;;;;;;;5.05;100.00;100115.53;4973174;28;20099;-79
2023/12/12 02:49:19;;;;;;;43.77;20.60;;;;;;;5.04;100.00;100116.53;4973572;28;20117;-78
2023/12/12 02:51:44;;;;;;;50.03;22.53;;;;;;;5.07;100.00;100126.81;4973547;28;20033;-79
2023/12/12 02:54:10;;;;;;;41.00;19.43;;;;;;;5.10;100.00;100127.50;4990748;28;20361;-79
2023/12/12 02:56:35;;;;;;;44.33;19.40;;;;;;;5.01;100.00;100116.81;4972872;28;20034;-79
2023/12/12 02:59:01;;;;;;;44.33;19.50;;;;;;;5.03;100.00;100122.81;4957137;28;20273;-78
2023/12/12 03:01:27;;;;;;;45.10;20.25;;;;;;;5.05;100.00;100123.47;4968136;28;20300;-77
2023/12/12 03:03:52;;;;;;;;;;;;;;;5.07;100.00;100121.53;4972589;28;20098;-79
2023/12/12 03:06:20;;;;;;;46.40;17.85;;;;;;;5.04;100.00;100110.41;4972678;28;19936;-79
2023/12/12 03:08:46;;;;;;;45.50;19.90;;;;;;;5.02;100.00;100112.34;4969025;28;20556;-77
2023/12/12 03:11:11;;;;;;;43.15;19.55;;;;;;;4.98;100.00;100109.13;4966386;28;20708;-78
2023/12/12 03:13:37;;;;;;;51.15;20.83;;;;;;;5.01;100.00;100114.16;4973041;28;20022;-79
2023/12/12 03:16:03;;;;;;;48.67;20.67;;;;;;;5.02;100.00;100117.63;4971421;28;20030;-78
2023/12/12 03:18:28;;;;;;;47.47;21.70;;;;;;;5.04;100.00;100118.34;4961884;28;20273;-79
2023/12/12 03:20:53;;;;;;;47.13;20.97;;;;;;;5.01;100.00;100114.16;4990086;28;20034;-78
2023/12/12 03:23:19;;;;;;;41.73;20.17;;;;;;;5.03;100.00;100120.16;4972130;28;20042;-78
2023/12/12 03:25:44;;;;;;;45.23;17.47;;;;;;;5.02;100.00;100117.63;4964841;28;20041;-79
2023/12/12 03:28:09;;;;;;;44.23;19.90;;;;;;;5.00;100.00;100117.78;4964739;28;20956;-78
2023/12/12 03:30:34;;;;;;;42.53;18.77;;;;;;;5.07;100.00;100120.69;4974322;28;20030;-79
2023/12/12 03:33:00;;;;;;;51.03;21.13;;;;;;;5.11;100.00;100123.91;4984548;28;20316;-80
2023/12/12 03:35:25;;;;;;;41.38;19.42;;;;;;;5.12;100.00;100122.91;4990844;28;20045;-77
2023/12/12 03:37:51;;;;;;;38.80;18.90;;;;;;;5.14;100.00;100132.38;4973530;28;20120;-79
2023/12/12 03:40:16;;;;;;;47.50;19.60;;;;;;;5.11;100.00;100134.47;4973440;23;20326;-80
2023/12/12 03:42:41;;;;;;;41.80;20.23;;;;;;;5.11;100.00;100131.84;4954164;28;20034;-81
2023/12/12 03:45:08;;;;;;;49.50;21.43;;;;;;;5.08;100.00;100141.72;4973525;28;20030;-81
2023/12/12 03:47:33;;;;;;;43.10;20.40;;;;;;;5.12;100.00;100150.19;4964870;28;20351;-81
2023/12/12 03:49:58;;;;;;;49.60;22.00;;;;;;;5.05;100.00;100139.34;4974456;28;20466;-81
2023/12/12 03:52:26;;;;;;;48.92;19.90;;;;;;;5.09;100.00;100147.84;4967192;28;20081;-81
2023/12/12 03:54:51;;;;;;;86.67;22.97;;;;;;;5.03;100.00;100145.75;4952531;28;20030;-80
2023/12/12 03:57:16;;;;;;;64.03;22.60;;;;;;;4.94;100.00;100139.53;4970028;28;20313;-81
2023/12/12 03:59:42;;;;;;;53.33;22.47;;;;;;;4.94;100.00;100139.53;4981777;28;20050;-81
2023/12/12 04:02:07;;;;;;;48.17;22.02;;;;;;;4.99;100.00;100139.94;4987667;28;20034;-80
2023/12/12 04:04:32;;;;;;;49.43;21.27;;;;;;;5.03;100.00;100143.97;4968745;28;20041;-81
2023/12/12 04:06:58;;;;;;;50.83;20.05;;;;;;;5.03;100.00;100149.25;4982215;28;20049;-81
2023/12/12 04:09:23;;;;;;;54.63;21.83;;;;;;;4.99;100.00;100153.16;4971128;28;20034;-81
2023/12/12 04:11:49;;;;;;;63.33;23.35;;;;;;;5.06;100.00;100148.97;4953573;28;20045;-81
2023/12/12 04:14:14;;;;;;;72.47;26.00;;;;;;;5.04;100.00;100147.44;4970921;28;20031;-81
2023/12/12 04:16:39;;;;;;;49.83;20.13;;;;;;;4.94;100.00;100139.53;4970881;28;20038;-80
2023/12/12 04:19:05;;;;;;;62.45;22.70;;;;;;;4.92;100.00;100146.75;4986341;28;21120;-81
2023/12/12 04:21:30;;;;;;;73.17;25.70;;;;;;;4.93;100.00;100147.59;4982425;28;20035;-81
2023/12/12 04:23:56;;;;;;;80.33;25.30;;;;;;;4.91;100.00;100144.25;4971654;28;20297;-81
2023/12/12 04:26:21;;;;;;;76.40;25.00;;;;;;;4.89;100.00;100141.72;4967025;28;20285;-81
2023/12/12 04:28:47;;;;;;;126.37;25.80;;;;;;;4.87;100.00;100133.13;4970431;28;20045;-81
2023/12/12 04:31:16;;;;;;;111.60;26.53;;;;;;;4.82;100.00;100135.34;4974491;28;20769;-80
2023/12/12 04:33:42;;;;;;;96.85;25.90;;;;;;;4.87;100.00;100154.28;4962956;28;20080;-81
2023/12/12 04:36:08;;;;;;;59.85;22.52;;;;;;;4.85;100.00;100143.00;4990434;28;20034;-81
2023/12/12 04:38:35;;;;;;;68.20;22.17;;;;;;;4.79;100.00;100140.91;4964934;28;20047;-81
2023/12/12 04:41:03;;;;;;;62.95;23.10;;;;;;;4.76;100.00;100146.50;4973704;28;20123;-81
2023/12/12 04:43:29;;;;;;;71.38;22.48;;;;;;;4.82;100.00;100143.25;4974779;28;20492;-81
2023/12/12 04:45:55;;;;;;;71.10;20.38;;;;;;;4.84;100.00;100149.25;4960733;28;20050;-81
2023/12/12 04:48:20;;;;;;;59.35;21.05;;;;;;;4.77;100.00;100143.69;4990666;28;20030;-81
2023/12/12 04:50:46;;;;;;;58.53;22.30;;;;;;;4.82;100.00;100151.19;4974444;28;20118;-81
2023/12/12 04:53:11;;;;;;;67.10;21.30;;;;;;;4.79;100.00;100152.31;4987923;28;20293;-81
2023/12/12 04:55:37;;;;;;;52.50;19.23;;;;;;;4.78;100.00;100149.84;4955309;28;20289;-81
2023/12/12 04:58:02;;;;;;;69.77;19.90;;;;;;;4.79;100.00;100151.50;4988513;28;20058;-81
2023/12/12 05:00:27;;;;;;;108.10;22.97;;;;;;;4.82;100.00;100156.50;4983014;28;20043;-81
2023/12/12 05:02:53;;;;;;;61.90;20.50;;;;;;;4.86;100.00;100163.19;4987345;28;20285;-81
2023/12/12 05:05:18;;;;;;;62.93;22.00;;;;;;;4.85;100.00;100158.88;4972692;28;20050;-81
2023/12/12 05:07:43;;;;;;;55.47;19.33;;;;;;;4.85;100.00;100165.00;4980124;28;20472;-81
2023/12/12 05:10:09;;;;;;;58.30;20.88;;;;;;;4.82;100.00;100156.50;4968555;28;20304;-81
2023/12/12 05:12:35;;;;;;;53.15;19.58;;;;;;;4.86;100.00;100163.19;4972099;28;20078;-81
2023/12/12 05:15:00;;;;;;;53.30;19.38;;;;;;;4.89;100.00;100173.47;4980081;28;20389;-81
2023/12/12 05:17:26;;;;;;;66.85;21.17;;;;;;;4.89;100.00;100176.13;4980748;28;20109;-81
2023/12/12 05:19:51;;;;;;;47.57;18.73;;;;;;;4.88;100.00;100177.09;4978116;28;20037;-81
2023/12/12 05:22:17;;;;;;;55.97;19.88;;;;;;;4.83;100.00;100169.59;4980406;28;20057;-81
2023/12/12 05:24:43;;;;;;;62.53;19.42;;;;;;;4.83;100.00;100174.06;4983958;28;20070;-81
2023/12/12 05:27:08;;;;;;;62.78;21.98;;;;;;;4.83;100.00;100180.16;4983096;28;20082;-80
2023/12/12 05:29:34;;;;;;;56.85;19.92;;;;;;;4.82;100.00;100175.88;4960561;28;20039;-80
2023/12/12 05:31:59;;;;;;;60.50;20.70;;;;;;;4.84;100.00;100181.81;4976504;28;20125;-80
2023/12/12 05:34:24;;;;;;;112.40;26.40;;;;;;;4.86;100.00;100181.69;4989894;28;20528;-81
2023/12/12 05:36:50;;;;;;;89.63;25.33;;;;;;;4.86;100.00;100181.69;4960519;28;20081;-81
2023/12/12 05:39:15;;;;;;;66.27;21.67;;;;;;;4.80;100.00;100177.81;4969447;28;20372;-81
2023/12/12 05:41:40;;;;;;;61.00;20.17;;;;;;;4.82;100.00;100182.94;4989128;28;20281;-80
2023/12/12 05:44:07;;;;;;;63.27;21.37;;;;;;;4.84;100.00;100181.81;4957961;28;20541;-81
2023/12/12 05:46:33;;;;;;;57.55;19.33;;;;;;;4.78;100.00;100171.00;4981731;28;20038;-81
2023/12/12 05:48:59;;;;;;;54.30;20.52;;;;;;;4.81;100.00;100183.94;4991241;28;20030;-81
2023/12/12 05:51:26;;;;;;;63.35;21.95;;;;;;;4.83;100.00;100189.91;4980350;28;20534;-80
2023/12/12 05:53:51;;;;;;;73.57;22.13;;;;;;;4.78;100.00;100184.22;4975371;28;20031;-81
2023/12/12 05:56:18;;;;;;;58.28;20.02;;;;;;;4.78;100.00;100186.84;4960664;28;20038;-81
2023/12/12 05:58:43;;;;;;;;;;;;;;;4.81;100.00;100187.41;4958957;28;20038;-81
2023/12/12 06:01:09;;;;;;;90.65;22.63;;;;;;;4.77;100.00;100188.66;4975924;28;19914;-80
2023/12/12 06:03:34;;;;;;;66.97;21.40;;;;;;;4.78;100.00;100195.63;4973241;28;20031;-81
2023/12/12 06:06:02;;;;;;;56.83;20.17;;;;;;;4.50;100.00;100172.63;4987087;28;20030;-80
2023/12/12 06:08:27;;;;;;;65.05;20.05;;;;;;;4.59;100.00;100195.63;4976869;28;20768;-80
2023/12/12 06:10:52;;;;;;;145.03;25.60;;;;;;;4.67;100.00;100200.22;4978806;28;20101;-80
2023/12/12 06:13:18;;;;;;;70.83;23.67;;;;;;;4.63;100.00;100204.91;4967108;28;20328;-81
2023/12/12 06:15:43;;;;;;;75.73;22.47;;;;;;;4.63;100.00;100204.91;4988609;28;20034;-81
2023/12/12 06:18:09;;;;;;;59.80;20.98;;;;;;;4.61;100.00;100199.78;4974470;28;20018;-80
2023/12/12 06:20:35;;;;;;;55.60;20.02;;;;;;;4.63;100.00;100205.75;4964445;28;20041;-81
2023/12/12 06:23:00;;;;;;;75.60;23.15;;;;;;;4.69;100.00;100220.25;4960520;28;20023;-80
2023/12/12 06:25:26;;;;;;;122.82;28.85;;;;;;;4.61;100.00;100213.00;4975088;28;20086;-81
2023/12/12 06:27:52;;;;;;;68.95;21.88;;;;;;;4.63;100.00;100224.25;4974797;28;20433;-80
2023/12/12 06:30:18;;;;;;;86.13;24.60;;;;;;;4.64;100.00;100228.59;4973057;28;20047;-81
2023/12/12 06:32:44;;;;;;;82.78;22.15;;;;;;;4.62;100.00;100229.69;4960768;28;20031;-81
2023/12/12 06:35:11;;;;;;;67.30;22.77;;;;;;;4.60;100.00;100229.00;4973698;28;20038;-80
2023/12/12 06:37:36;;;;;;;70.55;21.30;;;;;;;4.61;100.00;100234.16;4971095;28;20035;-80
2023/12/12 06:40:03;;;;;;;59.75;21.38;;;;;;;4.61;100.00;100236.81;4978775;28;20125;-80
2023/12/12 06:42:29;;;;;;;66.88;22.92;;;;;;;4.67;100.00;100237.22;4996664;28;20030;-80
2023/12/12 06:44:55;;;;;;;;;;;;;;;4.70;100.00;100243.06;4984765;28;20077;-81
2023/12/12 06:47:20;;;;;;;72.38;22.63;;;;;;;4.67;100.00;100238.06;5001121;28;19918;-80
2023/12/12 06:49:46;;;;;;;108.30;28.63;;;;;;;4.61;100.00;100233.31;4991731;28;20054;-80
2023/12/12 06:52:11;;;;;;;67.35;22.48;;;;;;;4.59;100.00;100237.91;5003276;28;20054;-80
2023/12/12 06:54:55;;;;;;;54.67;21.65;;;;;;;4.67;100.00;100247.81;5008311;28;20134;-82
2023/12/12 06:57:21;;;;;;;52.95;20.48;;;;;;;4.73;100.00;100250.75;5005515;28;20045;-80
2023/12/12 06:59:46;;;;;;;59.78;20.75;;;;;;;4.73;100.00;100252.53;4986220;28;20137;-80
2023/12/12 07:02:11;;;;;;;95.13;25.37;;;;;;;4.72;100.00;100250.88;4981910;28;20042;-81
2023/12/12 07:04:38;;;;;;;91.47;22.17;;;;;;;4.65;100.00;100251.41;4979717;28;20446;-80
2023/12/12 07:07:03;;;;;;;62.70;19.95;;;;;;;4.61;100.00;100250.03;4975423;28;20042;-81
2023/12/12 07:09:29;;;;;;;64.20;21.17;;;;;;;4.59;100.00;100248.50;4978899;28;20428;-81
2023/12/12 07:11:54;;;;;;;70.90;23.37;;;;;;;4.63;100.00;100253.34;4972943;28;20034;-81
2023/12/12 07:14:20;;;;;;;143.18;28.73;;;;;;;4.64;100.00;100248.91;4974278;28;20117;-81
2023/12/12 07:16:45;;;;;;;115.65;23.92;;;;;;;4.58;100.00;100247.63;4956763;28;20047;-81
2023/12/12 07:19:10;;;;;;;112.83;29.20;;;;;;;4.55;100.00;100239.97;4977864;28;20023;-81
2023/12/12 07:21:43;;;;;;;59.53;21.67;;;;;;;4.58;100.00;100239.69;4974336;28;20069;-80
2023/12/12 07:24:10;;;;;;;66.18;21.88;;;;;;;4.64;100.00;100247.09;4974484;28;20038;-81
2023/12/12 07:26:36;;;;;;;81.72;24.17;;;;;;;4.67;100.00;100247.81;4978315;28;20038;-80
2023/12/12 07:29:01;;;;;;;78.47;24.23;;;;;;;4.65;100.00;100246.13;4989018;28;20026;-81
2023/12/12 07:31:26;;;;;;;93.05;25.58;;;;;;;4.63;100.00;100248.06;4969908;28;20500;-80
2023/12/12 07:33:52;;;;;;;96.57;25.90;;;;;;;4.61;100.00;100236.81;4983663;28;20046;-80
2023/12/12 07:36:17;;;;;;;77.65;22.52;;;;;;;4.67;100.00;100242.50;4973007;28;20038;-81
2023/12/12 07:38:42;;;;;;;64.43;22.77;;;;;;;4.65;100.00;100243.47;4955834;28;20093;-81
2023/12/12 07:41:09;;;;;;;75.60;24.63;;;;;;;4.66;100.00;100246.97;4983642;28;20037;-81
2023/12/12 07:43:34;;;;;;;;;;;;;;;4.68;100.00;100242.34;4983184;28;20293;-81
2023/12/12 07:45:59;;;;;;;74.55;22.65;;;;;;;4.68;100.00;100249.47;4976764;28;19924;-81
2023/12/12 07:48:25;;;;;;;80.30;23.53;;;;;;;4.64;100.00;100238.34;4964531;28;20533;-81
2023/12/12 07:50:50;;;;;;;67.33;22.73;;;;;;;4.67;100.00;100239.88;4968340;28;20730;-81
2023/12/12 07:53:15;;;;;;;75.80;22.40;;;;;;;4.66;100.00;100239.03;4970139;28;20038;-80
2023/12/12 07:55:41;;;;;;;78.03;25.27;;;;;;;4.69;100.00;100235.28;4965268;28;20516;-81
2023/12/12 07:58:07;;;;;;;97.43;25.43;;;;;;;4.72;100.00;100242.94;4981949;28;20995;-81
2023/12/12 08:00:32;;;;;;;77.20;24.20;;;;;;;4.76;100.00;100244.34;4982825;28;20029;-81
2023/12/12 08:02:58;;;;;;;66.30;24.13;;;;;;;4.75;100.00;100248.81;4983239;28;20556;-80
2023/12/12 08:05:24;;;;;;;108.57;27.70;;;;;;;4.79;100.00;100241.41;4969507;28;20851;-81
2023/12/12 08:07:49;;;;;;;81.88;26.67;;;;;;;4.77;100.00;100238.91;4970576;28;20139;-81
2023/12/12 08:10:15;;;;;;;57.27;22.40;;;;;;;4.89;100.00;100252.81;4959508;28;20140;-81
2023/12/12 08:12:42;;;;;;;69.10;24.35;;;;;;;4.93;100.00;100253.41;4985630;28;20293;-81
2023/12/12 08:15:08;;;;;;;85.15;25.40;;;;;;;4.85;100.00;100243.53;4986911;28;20022;-81
2023/12/12 08:17:34;;;;;;;69.43;22.67;;;;;;;4.78;100.00;100250.34;4974596;28;20118;-81
2023/12/12 08:19:59;;;;;;;59.90;20.80;;;;;;;4.85;100.00;100251.47;4981141;28;20508;-81
2023/12/12 08:22:25;;;;;;;64.60;22.23;;;;;;;4.88;100.00;100266.22;4988424;28;20715;-81
2023/12/12 08:24:51;;;;;;;66.95;22.17;;;;;;;4.88;100.00;100263.56;4976291;28;20297;-81
2023/12/12 08:27:18;;;;;;;;;;;;;;;4.96;100.00;100269.81;4972342;28;20031;-81
2023/12/12 08:29:45;;;;;;;61.85;20.90;;;;;;;4.92;100.00;100272.91;4986120;28;20339;-81
2023/12/12 08:32:10;;;;;;;60.88;21.92;;;;;;;4.92;100.00;100273.75;4987860;28;20053;-81
2023/12/12 08:34:36;;;;;;;56.85;21.42;;;;;;;4.93;100.00;100280.69;4989634;28;20062;-79
2023/12/12 08:37:01;;;;;;;74.72;26.10;;;;;;;4.95;100.00;100262.88;4982284;28;20045;-80
2023/12/12 08:39:27;;;;;;;62.03;21.08;;;;;;;5.01;100.00;100272.91;4992985;28;20492;-81
2023/12/12 08:41:52;;;;;;;65.43;22.17;;;;;;;5.06;100.00;100270.69;4974530;28;20049;-81
2023/12/12 08:44:18;;;;;;;51.60;19.20;;;;;;;5.14;100.00;100266.50;4992543;28;20088;-81
2023/12/12 08:46:43;;;;;;;56.67;21.77;;;;;;;5.25;100.00;100274.31;4992687;28;20421;-81
2023/12/12 08:49:09;;;;;;;68.40;23.08;;;;;;;5.14;100.00;100261.22;4990076;28;20038;-81
2023/12/12 08:51:34;;;;;;;56.92;20.98;;;;;;;5.18;100.00;100267.91;4976663;28;20038;-80
2023/12/12 08:54:02;;;;;;;56.78;19.83;;;;;;;5.17;100.00;100264.41;4974252;28;20049;-81
2023/12/12 08:56:28;;;;;;;48.47;18.35;;;;;;;5.06;100.00;100254.81;4972538;28;20026;-81
2023/12/12 08:58:54;;;;;;;49.40;18.45;;;;;;;4.90;100.00;100243.09;4971779;28;20041;-81
2023/12/12 09:01:20;;;;;;;40.78;16.98;;;;;;;4.71;100.00;100238.63;4975301;28;20043;-81
2023/12/12 09:03:45;;;;;;;52.20;17.70;;;;;;;4.91;100.00;100252.69;4985580;28;20026;-81
2023/12/12 09:06:11;;;;;;;37.10;13.88;;;;;;;4.87;100.00;100249.50;4958380;28;20054;-81
2023/12/12 09:08:40;;;;;;;36.88;15.00;;;;;;;4.68;100.00;100249.47;4975464;28;20080;-81
2023/12/12 09:11:05;;;;;;;39.78;14.75;;;;;;;4.79;100.00;100249.34;4974174;28;20042;-81
2023/12/12 09:13:31;;;;;;;33.97;14.13;;;;;;;4.72;100.00;100248.22;4991648;28;20034;-81
2023/12/12 09:15:56;;;;;;;35.07;14.27;;;;;;;4.48;100.00;100240.66;4984737;28;20384;-81
2023/12/12 09:18:21;;;;;;;37.97;14.47;;;;;;;4.41;100.00;100238.56;4985997;28;20061;-81
2023/12/12 09:20:47;;;;;;;31.30;12.73;;;;;;;4.59;100.00;100249.31;4986348;28;20033;-81
2023/12/12 09:23:13;;;;;;;38.00;14.63;;;;;;;4.70;100.00;100258.09;4974566;28;20289;-81
2023/12/12 09:25:39;;;;;;;29.77;13.15;;;;;;;4.72;100.00;100253.50;4985848;28;20039;-81
2023/12/12 09:28:05;;;;;;;35.20;13.57;;;;;;;4.66;100.00;100257.56;4976853;28;20030;-81
2023/12/12 09:30:30;;;;;;;31.23;13.65;;;;;;;4.67;100.00;100263.66;4986132;28;20684;-81
2023/12/12 09:32:55;;;;;;;37.83;12.07;;;;;;;4.62;100.00;100251.69;4991845;28;20113;-81
2023/12/12 09:35:21;;;;;;;30.92;12.73;;;;;;;4.81;100.00;100256.16;4975773;28;20034;-81
2023/12/12 09:37:46;;;;;;;32.45;13.32;;;;;;;4.54;100.00;100246.25;4975569;28;20481;-80
2023/12/12 09:40:12;;;;;;;27.20;11.77;;;;;;;4.52;100.00;100245.56;4961851;28;20050;-81
2023/12/12 09:42:39;;;;;;;27.00;12.60;;;;;;;4.48;100.00;100238.03;4991839;28;20030;-81
2023/12/12 09:45:13;;;;;;;28.77;12.95;;;;;;;4.71;100.00;100263.25;4956386;28;20229;-81
2023/12/12 09:47:42;;;;;;;25.75;11.02;;;;;;;4.67;100.00;100251.28;4987093;28;20062;-81
2023/12/12 09:50:09;;;;;;;23.05;10.13;;;;;;;4.46;100.00;100238.16;4962208;28;20065;-81
2023/12/12 09:52:36;;;;;;;20.38;9.60;;;;;;;4.63;100.00;100245.41;4984491;28;20034;-81
2023/12/12 09:55:02;;;;;;;23.65;9.32;;;;;;;4.71;100.00;100250.03;4973752;28;20038;-81
2023/12/12 09:57:28;;;;;;;20.85;8.02;;;;;;;4.45;100.00;100236.50;4984410;28;20045;-81
2023/12/12 09:59:54;;;;;;;24.52;10.07;;;;;;;4.39;100.00;100229.09;4990351;28;20038;-81
2023/12/12 10:02:31;;;;;;;22.52;9.65;;;;;;;4.40;100.00;100228.09;4973742;28;20054;-81
2023/12/12 10:04:57;;;;;;;20.33;10.48;;;;;;;4.61;100.00;100243.88;4990277;28;20042;-81
2023/12/12 10:07:24;;;;;;;23.88;10.80;;;;;;;4.85;100.00;100251.47;4974947;28;20053;-81
2023/12/12 10:09:50;;;;;;;21.40;10.25;;;;;;;4.68;100.00;100244.19;4978836;28;20456;-81
2023/12/12 10:12:16;;;;;;;22.60;9.70;;;;;;;4.49;100.00;100229.94;4963414;28;20035;-81
2023/12/12 10:14:44;;;;;;;;;;;;;;;4.68;100.00;100241.53;4990434;28;20493;-81
2023/12/12 10:17:11;;;;;;;17.05;9.32;;;;;;;4.39;100.00;100218.53;4989501;28;20213;-81
2023/12/12 10:19:41;;;;;;;18.90;10.57;;;;;;;4.61;100.00;100234.16;4989075;28;20034;-81
2023/12/12 10:22:08;;;;;;;22.45;9.55;;;;;;;4.69;100.00;100236.13;4988798;28;20052;-80
2023/12/12 10:24:35;;;;;;;19.55;7.93;;;;;;;4.82;100.00;100244.63;4989866;28;20311;-81
2023/12/12 10:27:01;;;;;;;23.23;10.27;;;;;;;4.87;100.00;100233.63;4985784;28;20042;-81
2023/12/12 10:29:26;;;;;;;17.92;8.45;;;;;;;4.93;100.00;100243.66;4973568;28;20085;-81
2023/12/12 10:31:52;;;;;;;20.15;7.97;;;;;;;4.72;100.00;100224.41;4983424;28;20444;-81
2023/12/12 10:34:19;;;;;;;15.90;7.75;;;;;;;4.47;100.00;100210.72;4958708;28;20034;-81
2023/12/12 10:36:47;;;;;;;17.17;8.48;;;;;;;4.53;100.00;100214.66;4983364;28;20513;-81
2023/12/12 10:39:14;;;;;;;16.52;7.40;;;;;;;4.67;100.00;100230.13;4972588;28;20045;-81
2023/12/12 10:41:40;;;;;;;17.05;7.80;;;;;;;4.83;100.00;100234.88;4973731;28;20296;-83
2023/12/12 10:44:08;;;;;;;17.55;9.43;;;;;;;4.84;100.00;100226.78;4988594;28;20241;-80
2023/12/12 10:46:37;;;;;;;25.65;9.85;;;;;;;5.01;100.00;100230.56;4973529;28;20034;-81
2023/12/12 10:49:02;;;;;;;19.58;9.13;;;;;;;4.94;100.00;100221.53;4954256;28;20026;-80
2023/12/12 10:51:28;;;;;;;17.08;8.88;;;;;;;4.63;100.00;100197.81;4974603;28;20178;-81
2023/12/12 10:53:55;;;;;;;18.10;9.40;;;;;;;4.74;100.00;100193.41;4983920;28;20026;-81
2023/12/12 10:56:21;;;;;;;21.77;10.55;;;;;;;5.01;100.00;100211.19;4954316;28;20034;-81
2023/12/12 10:58:48;;;;;;;22.83;11.50;;;;;;;5.18;100.00;100218.44;4965199;28;20042;-81
2023/12/12 11:01:14;;;;;;;22.63;10.68;;;;;;;5.22;100.00;100222.50;4984908;28;20049;-81
2023/12/12 11:03:40;;;;;;;;;;;;;;;5.21;100.00;100209.38;4980022;28;20125;-80
2023/12/12 11:06:07;;;;;;;19.98;9.18;;;;;;;4.92;100.00;100182.97;4983721;28;19968;-81
2023/12/12 11:08:34;;;;;;;22.70;10.05;;;;;;;5.10;100.00;100198.94;4970679;28;20034;-81